Louisville International Standiford Field Louisville US
ICAO: KSDF
IATA: SDF
Category: Large
Scheduled Services: Yes

Elevation: 501 ft
TransAlt. 18000 ft.

Airport Communications:
APP:123.675
ATIS:118.725
CLNC DEL:126.1
DEP:123.675
GND:121.7
ANG OPS:26.81
TWR:124.2
UNICOM:122.95

KSDF Zoom In..

Runways:

(A) RW 11 length 7250 ft width 150 ft
LOC 109.10 / hdg 114

(B) RW 17L length 8579 ft width 150 ft
ILS 111.95 / hdg 168

(C) RW 17R length 11887 ft width 150 ft
ILS 110.30 / hdg 168

(D) RW 29 length 7250 ft width 150 ft
LOC 109.10 / hdg 294

(E) RW 35L length 11887 ft width 150 ft
ILS 109.35 / hdg 348

(F) RW 35R length 8579 ft width 150 ft
ILS 110.55 / hdg 348

Location; KSDF
Day. 29 / Time. 21.56 Zulu
* Altimeter: 29.98
* Temperature: 23° c. 73.4°f.
* Wind from: 310° Speed 09 kn.
Dewpoint: 19° c.
Visibility: 10 Statute Miles.
Clouds: Few 2000 ft.
Clouds: Broken 7500 ft.
Clouds: Broken 9000 ft.
Clouds: Broken 14000 ft.

KSDF 292156Z 31009KT 10SM FEW020 BKN075 BKN090 BKN140 23/19 A2998 RMK AO2 RAB00E11 SLP148 P0000 T02280189


Wind From 310°
Speed 09 kn.

 
 
jpsmedia worldairports.se 2020   terms of use